sensor_id;sensor_type;location;lat;lon;timestamp;P1;P2;P0
63915;PMS5003;50094;51.356;-0.196;2022-07-15T00:00:04;0;0;
63915;PMS5003;50094;51.356;-0.196;2022-07-15T00:02:32;0;0;
63915;PMS5003;50094;51.356;-0.196;2022-07-15T00:05:00;0;0;
63915;PMS5003;50094;51.356;-0.196;2022-07-15T00:07:28;0;0;
63915;PMS5003;50094;51.356;-0.196;2022-07-15T00:09:55;0;0;
63915;PMS5003;50094;51.356;-0.196;2022-07-15T00:12:23;1;0;
63915;PMS5003;50094;51.356;-0.196;2022-07-15T00:14:51;0;0;
63915;PMS5003;50094;51.356;-0.196;2022-07-15T00:17:18;0;0;
63915;PMS5003;50094;51.356;-0.196;2022-07-15T00:19:46;0;0;
63915;PMS5003;50094;51.356;-0.196;2022-07-15T00:22:14;0;0;
63915;PMS5003;50094;51.356;-0.196;2022-07-15T00:24:41;0;0;
63915;PMS5003;50094;51.356;-0.196;2022-07-15T00:27:09;0;0;
63915;PMS5003;50094;51.356;-0.196;2022-07-15T00:29:36;0;0;
63915;PMS5003;50094;51.356;-0.196;2022-07-15T00:32:04;0;0;
63915;PMS5003;50094;51.356;-0.196;2022-07-15T00:34:32;0;0;
63915;PMS5003;50094;51.356;-0.196;2022-07-15T00:36:59;0;0;
63915;PMS5003;50094;51.356;-0.196;2022-07-15T00:39:27;0;0;
63915;PMS5003;50094;51.356;-0.196;2022-07-15T00:41:54;0;0;
63915;PMS5003;50094;51.356;-0.196;2022-07-15T00:44:22;0;0;
63915;PMS5003;50094;51.356;-0.196;2022-07-15T00:46:50;0;0;
63915;PMS5003;50094;51.356;-0.196;2022-07-15T00:49:17;0;0;
63915;PMS5003;50094;51.356;-0.196;2022-07-15T00:51:46;0;0;
63915;PMS5003;50094;51.356;-0.196;2022-07-15T00:54:16;0;0;
63915;PMS5003;50094;51.356;-0.196;2022-07-15T00:56:49;0;0;
63915;PMS5003;50094;51.356;-0.196;2022-07-15T00:59:18;0;0;
63915;PMS5003;50094;51.356;-0.196;2022-07-15T01:01:48;0;0;
63915;PMS5003;50094;51.356;-0.196;2022-07-15T01:04:17;0;0;
63915;PMS5003;50094;51.356;-0.196;2022-07-15T01:06:46;0;0;
63915;PMS5003;50094;51.356;-0.196;2022-07-15T01:09:14;0;0;
63915;PMS5003;50094;51.356;-0.196;2022-07-15T01:11:41;0;0;
63915;PMS5003;50094;51.356;-0.196;2022-07-15T01:14:09;0;0;
63915;PMS5003;50094;51.356;-0.196;2022-07-15T01:16:37;0;0;
63915;PMS5003;50094;51.356;-0.196;2022-07-15T01:19:04;0;0;
63915;PMS5003;50094;51.356;-0.196;2022-07-15T01:21:32;0;0;
63915;PMS5003;50094;51.356;-0.196;2022-07-15T01:23:59;0;0;
63915;PMS5003;50094;51.356;-0.196;2022-07-15T01:26:27;0;0;
63915;PMS5003;50094;51.356;-0.196;2022-07-15T01:28:55;0;0;
63915;PMS5003;50094;51.356;-0.196;2022-07-15T01:31:22;0;0;
63915;PMS5003;50094;51.356;-0.196;2022-07-15T01:33:50;0;0;
63915;PMS5003;50094;51.356;-0.196;2022-07-15T01:36:17;0;0;
63915;PMS5003;50094;51.356;-0.196;2022-07-15T01:38:45;0;0;
63915;PMS5003;50094;51.356;-0.196;2022-07-15T01:41:13;0;0;
63915;PMS5003;50094;51.356;-0.196;2022-07-15T01:43:40;0;0;
63915;PMS5003;50094;51.356;-0.196;2022-07-15T01:46:08;0;0;
63915;PMS5003;50094;51.356;-0.196;2022-07-15T01:48:35;0;0;
63915;PMS5003;50094;51.356;-0.196;2022-07-15T01:51:03;0;0;
63915;PMS5003;50094;51.356;-0.196;2022-07-15T01:53:30;0;0;
63915;PMS5003;50094;51.356;-0.196;2022-07-15T01:55:58;0;0;
63915;PMS5003;50094;51.356;-0.196;2022-07-15T01:58:26;0;0;
63915;PMS5003;50094;51.356;-0.196;2022-07-15T02:00:59;0;0;
63915;PMS5003;50094;51.356;-0.196;2022-07-15T02:03:26;1;1;
63915;PMS5003;50094;51.356;-0.196;2022-07-15T02:05:59;0;0;
63915;PMS5003;50094;51.356;-0.196;2022-07-15T02:08:26;0;0;
63915;PMS5003;50094;51.356;-0.196;2022-07-15T02:10:54;0;0;
63915;PMS5003;50094;51.356;-0.196;2022-07-15T02:13:22;0;0;
63915;PMS5003;50094;51.356;-0.196;2022-07-15T02:15:49;0;0;
63915;PMS5003;50094;51.356;-0.196;2022-07-15T02:18:17;0;0;
63915;PMS5003;50094;51.356;-0.196;2022-07-15T02:20:44;0;0;
63915;PMS5003;50094;51.356;-0.196;2022-07-15T02:23:12;0;0;
63915;PMS5003;50094;51.356;-0.196;2022-07-15T02:25:39;0;0;
63915;PMS5003;50094;51.356;-0.196;2022-07-15T02:28:07;0;0;
63915;PMS5003;50094;51.356;-0.196;2022-07-15T02:30:40;0;0;
63915;PMS5003;50094;51.356;-0.196;2022-07-15T02:33:08;0;0;
63915;PMS5003;50094;51.356;-0.196;2022-07-15T02:35:36;0;0;
63915;PMS5003;50094;51.356;-0.196;2022-07-15T02:38:03;0;0;
63915;PMS5003;50094;51.356;-0.196;2022-07-15T02:40:31;0;0;
63915;PMS5003;50094;51.356;-0.196;2022-07-15T02:42:59;0;0;
63915;PMS5003;50094;51.356;-0.196;2022-07-15T02:45:29;0;0;
63915;PMS5003;50094;51.356;-0.196;2022-07-15T02:48:00;0;0;
63915;PMS5003;50094;51.356;-0.196;2022-07-15T02:50:33;0;0;
63915;PMS5003;50094;51.356;-0.196;2022-07-15T02:53:06;0;0;
63915;PMS5003;50094;51.356;-0.196;2022-07-15T02:55:33;0;0;
63915;PMS5003;50094;51.356;-0.196;2022-07-15T02:58:01;0;0;
63915;PMS5003;50094;51.356;-0.196;2022-07-15T03:00:28;0;0;
63915;PMS5003;50094;51.356;-0.196;2022-07-15T03:02:56;1;1;
63915;PMS5003;50094;51.356;-0.196;2022-07-15T03:05:24;0;0;
63915;PMS5003;50094;51.356;-0.196;2022-07-15T03:07:51;0;0;
63915;PMS5003;50094;51.356;-0.196;2022-07-15T03:10:19;0;0;
63915;PMS5003;50094;51.356;-0.196;2022-07-15T03:12:46;0;0;
63915;PMS5003;50094;51.356;-0.196;2022-07-15T03:15:14;0;0;
63915;PMS5003;50094;51.356;-0.196;2022-07-15T03:17:41;0;0;
63915;PMS5003;50094;51.356;-0.196;2022-07-15T03:20:11;0;0;
63915;PMS5003;50094;51.356;-0.196;2022-07-15T03:22:39;0;0;
63915;PMS5003;50094;51.356;-0.196;2022-07-15T03:25:06;0;0;
63915;PMS5003;50094;51.356;-0.196;2022-07-15T03:27:35;0;0;
63915;PMS5003;50094;51.356;-0.196;2022-07-15T03:30:03;0;0;
63915;PMS5003;50094;51.356;-0.196;2022-07-15T03:32:31;0;0;
63915;PMS5003;50094;51.356;-0.196;2022-07-15T03:34:59;0;0;
63915;PMS5003;50094;51.356;-0.196;2022-07-15T03:37:27;0;0;
63915;PMS5003;50094;51.356;-0.196;2022-07-15T03:39:55;0;0;
63915;PMS5003;50094;51.356;-0.196;2022-07-15T03:42:23;0;0;
63915;PMS5003;50094;51.356;-0.196;2022-07-15T03:44:50;0;0;
63915;PMS5003;50094;51.356;-0.196;2022-07-15T03:47:18;0;0;
63915;PMS5003;50094;51.356;-0.196;2022-07-15T03:49:45;0;0;
63915;PMS5003;50094;51.356;-0.196;2022-07-15T03:52:13;0;0;
63915;PMS5003;50094;51.356;-0.196;2022-07-15T03:54:40;0;0;
63915;PMS5003;50094;51.356;-0.196;2022-07-15T03:57:08;0;0;
63915;PMS5003;50094;51.356;-0.196;2022-07-15T03:59:35;0;0;
63915;PMS5003;50094;51.356;-0.196;2022-07-15T04:02:03;0;0;
63915;PMS5003;50094;51.356;-0.196;2022-07-15T04:04:30;0;0;
63915;PMS5003;50094;51.356;-0.196;2022-07-15T04:06:58;0;0;
63915;PMS5003;50094;51.356;-0.196;2022-07-15T04:09:26;0;0;
63915;PMS5003;50094;51.356;-0.196;2022-07-15T04:11:53;0;0;
63915;PMS5003;50094;51.356;-0.196;2022-07-15T04:14:21;0;0;
63915;PMS5003;50094;51.356;-0.196;2022-07-15T04:16:48;0;0;
63915;PMS5003;50094;51.356;-0.196;2022-07-15T04:19:16;0;0;
63915;PMS5003;50094;51.356;-0.196;2022-07-15T04:21:43;0;0;
63915;PMS5003;50094;51.356;-0.196;2022-07-15T04:24:11;0;0;
63915;PMS5003;50094;51.356;-0.196;2022-07-15T04:26:39;0;0;
63915;PMS5003;50094;51.356;-0.196;2022-07-15T04:29:06;0;0;
63915;PMS5003;50094;51.356;-0.196;2022-07-15T04:31:34;0;0;
63915;PMS5003;50094;51.356;-0.196;2022-07-15T04:34:01;0;0;
63915;PMS5003;50094;51.356;-0.196;2022-07-15T04:36:29;0;0;
63915;PMS5003;50094;51.356;-0.196;2022-07-15T04:38:57;0;0;
63915;PMS5003;50094;51.356;-0.196;2022-07-15T04:41:24;0;0;
63915;PMS5003;50094;51.356;-0.196;2022-07-15T04:43:52;0;0;
63915;PMS5003;50094;51.356;-0.196;2022-07-15T04:46:19;1;0;
63915;PMS5003;50094;51.356;-0.196;2022-07-15T04:48:47;0;0;
63915;PMS5003;50094;51.356;-0.196;2022-07-15T04:51:15;0;0;
63915;PMS5003;50094;51.356;-0.196;2022-07-15T04:53:42;0;0;
63915;PMS5003;50094;51.356;-0.196;2022-07-15T04:56:10;0;0;
63915;PMS5003;50094;51.356;-0.196;2022-07-15T04:58:37;0;0;
63915;PMS5003;50094;51.356;-0.196;2022-07-15T05:01:05;0;0;
63915;PMS5003;50094;51.356;-0.196;2022-07-15T05:03:32;0;0;
63915;PMS5003;50094;51.356;-0.196;2022-07-15T05:06:00;0;0;
63915;PMS5003;50094;51.356;-0.196;2022-07-15T05:08:28;0;0;
63915;PMS5003;50094;51.356;-0.196;2022-07-15T05:10:55;0;0;
63915;PMS5003;50094;51.356;-0.196;2022-07-15T05:13:23;0;0;
63915;PMS5003;50094;51.356;-0.196;2022-07-15T05:15:50;0;0;
63915;PMS5003;50094;51.356;-0.196;2022-07-15T05:18:18;0;0;
63915;PMS5003;50094;51.356;-0.196;2022-07-15T05:20:45;0;0;
63915;PMS5003;50094;51.356;-0.196;2022-07-15T05:23:14;0;0;
63915;PMS5003;50094;51.356;-0.196;2022-07-15T05:25:41;0;0;
63915;PMS5003;50094;51.356;-0.196;2022-07-15T05:28:09;0;0;
63915;PMS5003;50094;51.356;-0.196;2022-07-15T05:30:37;2;0;
63915;PMS5003;50094;51.356;-0.196;2022-07-15T05:33:04;0;0;
63915;PMS5003;50094;51.356;-0.196;2022-07-15T05:35:32;10;10;
63915;PMS5003;50094;51.356;-0.196;2022-07-15T05:37:59;0;0;
63915;PMS5003;50094;51.356;-0.196;2022-07-15T05:40:26;3;2;
63915;PMS5003;50094;51.356;-0.196;2022-07-15T05:42:54;3;3;
63915;PMS5003;50094;51.356;-0.196;2022-07-15T05:45:22;0;0;
63915;PMS5003;50094;51.356;-0.196;2022-07-15T05:47:49;1;1;
63915;PMS5003;50094;51.356;-0.196;2022-07-15T05:50:18;1;1;
63915;PMS5003;50094;51.356;-0.196;2022-07-15T05:52:46;0;0;
63915;PMS5003;50094;51.356;-0.196;2022-07-15T05:55:14;0;0;
63915;PMS5003;50094;51.356;-0.196;2022-07-15T05:57:41;0;0;
63915;PMS5003;50094;51.356;-0.196;2022-07-15T06:00:09;0;0;
63915;PMS5003;50094;51.356;-0.196;2022-07-15T06:02:38;1;1;
63915;PMS5003;50094;51.356;-0.196;2022-07-15T06:05:06;0;0;
63915;PMS5003;50094;51.356;-0.196;2022-07-15T06:07:35;1;1;
63915;PMS5003;50094;51.356;-0.196;2022-07-15T06:10:02;0;0;
63915;PMS5003;50094;51.356;-0.196;2022-07-15T06:12:31;0;0;
63915;PMS5003;50094;51.356;-0.196;2022-07-15T06:14:59;0;0;
63915;PMS5003;50094;51.356;-0.196;2022-07-15T06:17:27;0;0;
63915;PMS5003;50094;51.356;-0.196;2022-07-15T06:19:54;1;1;
63915;PMS5003;50094;51.356;-0.196;2022-07-15T06:22:22;1;1;
63915;PMS5003;50094;51.356;-0.196;2022-07-15T06:24:50;1;1;
63915;PMS5003;50094;51.356;-0.196;2022-07-15T06:27:17;0;0;
63915;PMS5003;50094;51.356;-0.196;2022-07-15T06:29:45;10;10;
63915;PMS5003;50094;51.356;-0.196;2022-07-15T06:32:12;15;13;
63915;PMS5003;50094;51.356;-0.196;2022-07-15T06:34:39;10;8;
63915;PMS5003;50094;51.356;-0.196;2022-07-15T06:37:07;6;4;
63915;PMS5003;50094;51.356;-0.196;2022-07-15T06:39:34;5;5;
63915;PMS5003;50094;51.356;-0.196;2022-07-15T06:42:02;5;2;
63915;PMS5003;50094;51.356;-0.196;2022-07-15T06:44:31;3;3;
63915;PMS5003;50094;51.356;-0.196;2022-07-15T06:46:58;3;3;
63915;PMS5003;50094;51.356;-0.196;2022-07-15T06:49:25;6;4;
63915;PMS5003;50094;51.356;-0.196;2022-07-15T06:51:53;3;3;
63915;PMS5003;50094;51.356;-0.196;2022-07-15T06:54:20;8;7;
63915;PMS5003;50094;51.356;-0.196;2022-07-15T06:56:48;2;2;
63915;PMS5003;50094;51.356;-0.196;2022-07-15T06:59:15;1;1;
63915;PMS5003;50094;51.356;-0.196;2022-07-15T07:01:42;3;3;
63915;PMS5003;50094;51.356;-0.196;2022-07-15T07:04:10;3;3;
63915;PMS5003;50094;51.356;-0.196;2022-07-15T07:06:38;4;4;
63915;PMS5003;50094;51.356;-0.196;2022-07-15T07:09:05;4;2;
63915;PMS5003;50094;51.356;-0.196;2022-07-15T07:11:33;2;1;
63915;PMS5003;50094;51.356;-0.196;2022-07-15T07:14:01;0;0;
63915;PMS5003;50094;51.356;-0.196;2022-07-15T07:16:28;5;4;
63915;PMS5003;50094;51.356;-0.196;2022-07-15T07:18:56;3;2;
63915;PMS5003;50094;51.356;-0.196;2022-07-15T07:21:24;3;3;
63915;PMS5003;50094;51.356;-0.196;2022-07-15T07:23:51;3;2;
63915;PMS5003;50094;51.356;-0.196;2022-07-15T07:26:19;2;2;
63915;PMS5003;50094;51.356;-0.196;2022-07-15T07:28:46;2;1;
63915;PMS5003;50094;51.356;-0.196;2022-07-15T07:31:14;1;1;
63915;PMS5003;50094;51.356;-0.196;2022-07-15T07:33:42;2;2;
63915;PMS5003;50094;51.356;-0.196;2022-07-15T07:36:09;2;2;
63915;PMS5003;50094;51.356;-0.196;2022-07-15T07:38:37;2;2;
63915;PMS5003;50094;51.356;-0.196;2022-07-15T07:41:04;2;2;
63915;PMS5003;50094;51.356;-0.196;2022-07-15T07:43:32;3;3;
63915;PMS5003;50094;51.356;-0.196;2022-07-15T07:45:59;1;0;
63915;PMS5003;50094;51.356;-0.196;2022-07-15T07:48:26;4;4;
63915;PMS5003;50094;51.356;-0.196;2022-07-15T07:50:54;2;2;
63915;PMS5003;50094;51.356;-0.196;2022-07-15T07:53:22;6;6;
63915;PMS5003;50094;51.356;-0.196;2022-07-15T07:55:49;2;2;
63915;PMS5003;50094;51.356;-0.196;2022-07-15T07:58:17;6;4;
63915;PMS5003;50094;51.356;-0.196;2022-07-15T08:00:44;1;1;
63915;PMS5003;50094;51.356;-0.196;2022-07-15T08:03:12;1;0;
63915;PMS5003;50094;51.356;-0.196;2022-07-15T08:05:39;2;2;
63915;PMS5003;50094;51.356;-0.196;2022-07-15T08:08:08;1;0;
63915;PMS5003;50094;51.356;-0.196;2022-07-15T08:10:37;4;4;
63915;PMS5003;50094;51.356;-0.196;2022-07-15T08:13:05;0;0;
63915;PMS5003;50094;51.356;-0.196;2022-07-15T08:15:33;1;1;
63915;PMS5003;50094;51.356;-0.196;2022-07-15T08:18:01;2;2;
63915;PMS5003;50094;51.356;-0.196;2022-07-15T08:20:30;0;0;
63915;PMS5003;50094;51.356;-0.196;2022-07-15T08:22:58;1;1;
63915;PMS5003;50094;51.356;-0.196;2022-07-15T08:25:26;1;1;
63915;PMS5003;50094;51.356;-0.196;2022-07-15T08:27:55;0;0;
63915;PMS5003;50094;51.356;-0.196;2022-07-15T08:30:23;2;2;
63915;PMS5003;50094;51.356;-0.196;2022-07-15T08:32:50;1;1;
63915;PMS5003;50094;51.356;-0.196;2022-07-15T08:35:18;0;0;
63915;PMS5003;50094;51.356;-0.196;2022-07-15T08:37:46;0;0;
63915;PMS5003;50094;51.356;-0.196;2022-07-15T08:40:14;0;0;
63915;PMS5003;50094;51.356;-0.196;2022-07-15T08:42:43;0;0;
63915;PMS5003;50094;51.356;-0.196;2022-07-15T08:45:10;1;1;
63915;PMS5003;50094;51.356;-0.196;2022-07-15T08:47:40;0;0;
63915;PMS5003;50094;51.356;-0.196;2022-07-15T08:50:09;0;0;
63915;PMS5003;50094;51.356;-0.196;2022-07-15T08:52:38;1;1;
63915;PMS5003;50094;51.356;-0.196;2022-07-15T08:55:05;0;0;
63915;PMS5003;50094;51.356;-0.196;2022-07-15T08:57:34;0;0;
63915;PMS5003;50094;51.356;-0.196;2022-07-15T09:00:02;0;0;
63915;PMS5003;50094;51.356;-0.196;2022-07-15T09:02:31;2;2;
63915;PMS5003;50094;51.356;-0.196;2022-07-15T09:05:32;0;0;
63915;PMS5003;50094;51.356;-0.196;2022-07-15T09:08:01;1;0;
63915;PMS5003;50094;51.356;-0.196;2022-07-15T09:10:47;0;0;
63915;PMS5003;50094;51.356;-0.196;2022-07-15T09:13:25;0;0;
63915;PMS5003;50094;51.356;-0.196;2022-07-15T09:15:55;0;0;
63915;PMS5003;50094;51.356;-0.196;2022-07-15T09:18:23;0;0;
63915;PMS5003;50094;51.356;-0.196;2022-07-15T09:20:52;0;0;
63915;PMS5003;50094;51.356;-0.196;2022-07-15T09:23:21;0;0;
63915;PMS5003;50094;51.356;-0.196;2022-07-15T09:25:51;0;0;
63915;PMS5003;50094;51.356;-0.196;2022-07-15T09:28:18;0;0;
63915;PMS5003;50094;51.356;-0.196;2022-07-15T09:30:46;0;0;
63915;PMS5003;50094;51.356;-0.196;2022-07-15T09:33:14;0;0;
63915;PMS5003;50094;51.356;-0.196;2022-07-15T09:35:43;2;1;
63915;PMS5003;50094;51.356;-0.196;2022-07-15T09:38:11;0;0;
63915;PMS5003;50094;51.356;-0.196;2022-07-15T09:40:41;0;0;
63915;PMS5003;50094;51.356;-0.196;2022-07-15T09:43:14;0;0;
63915;PMS5003;50094;51.356;-0.196;2022-07-15T09:45:41;0;0;
63915;PMS5003;50094;51.356;-0.196;2022-07-15T09:48:10;0;0;
63915;PMS5003;50094;51.356;-0.196;2022-07-15T09:50:38;0;0;
63915;PMS5003;50094;51.356;-0.196;2022-07-15T09:53:09;0;0;
63915;PMS5003;50094;51.356;-0.196;2022-07-15T09:55:38;1;0;
63915;PMS5003;50094;51.356;-0.196;2022-07-15T09:58:07;0;0;
63915;PMS5003;50094;51.356;-0.196;2022-07-15T10:00:35;0;0;
63915;PMS5003;50094;51.356;-0.196;2022-07-15T10:03:04;1;0;
63915;PMS5003;50094;51.356;-0.196;2022-07-15T10:05:32;0;0;
63915;PMS5003;50094;51.356;-0.196;2022-07-15T10:08:05;0;0;
63915;PMS5003;50094;51.356;-0.196;2022-07-15T10:10:36;0;0;
63915;PMS5003;50094;51.356;-0.196;2022-07-15T10:13:09;0;0;
63915;PMS5003;50094;51.356;-0.196;2022-07-15T10:15:44;0;0;
63915;PMS5003;50094;51.356;-0.196;2022-07-15T10:18:24;0;0;
63915;PMS5003;50094;51.356;-0.196;2022-07-15T10:21:07;0;0;
63915;PMS5003;50094;51.356;-0.196;2022-07-15T10:23:50;0;0;
63915;PMS5003;50094;51.356;-0.196;2022-07-15T10:26:31;1;1;
63915;PMS5003;50094;51.356;-0.196;2022-07-15T10:29:06;0;0;
63915;PMS5003;50094;51.356;-0.196;2022-07-15T10:31:36;0;0;
63915;PMS5003;50094;51.356;-0.196;2022-07-15T10:34:15;0;0;
63915;PMS5003;50094;51.356;-0.196;2022-07-15T10:37:00;1;0;
63915;PMS5003;50094;51.356;-0.196;2022-07-15T10:39:48;0;0;
63915;PMS5003;50094;51.356;-0.196;2022-07-15T10:42:18;0;0;
63915;PMS5003;50094;51.356;-0.196;2022-07-15T10:44:49;0;0;
63915;PMS5003;50094;51.356;-0.196;2022-07-15T10:47:31;0;0;
63915;PMS5003;50094;51.356;-0.196;2022-07-15T10:50:00;0;0;
63915;PMS5003;50094;51.356;-0.196;2022-07-15T10:53:14;0;0;
63915;PMS5003;50094;51.356;-0.196;2022-07-15T10:55:42;0;0;
63915;PMS5003;50094;51.356;-0.196;2022-07-15T10:58:10;0;0;
63915;PMS5003;50094;51.356;-0.196;2022-07-15T11:00:39;0;0;
63915;PMS5003;50094;51.356;-0.196;2022-07-15T11:03:07;0;0;
63915;PMS5003;50094;51.356;-0.196;2022-07-15T11:05:41;0;0;
63915;PMS5003;50094;51.356;-0.196;2022-07-15T11:09:01;0;0;
63915;PMS5003;50094;51.356;-0.196;2022-07-15T11:11:45;1;0;
63915;PMS5003;50094;51.356;-0.196;2022-07-15T11:14:47;0;0;
63915;PMS5003;50094;51.356;-0.196;2022-07-15T11:17:18;0;0;
63915;PMS5003;50094;51.356;-0.196;2022-07-15T11:19:49;0;0;
63915;PMS5003;50094;51.356;-0.196;2022-07-15T11:22:18;0;0;
63915;PMS5003;50094;51.356;-0.196;2022-07-15T11:24:47;0;0;
63915;PMS5003;50094;51.356;-0.196;2022-07-15T11:27:15;0;0;
63915;PMS5003;50094;51.356;-0.196;2022-07-15T11:29:43;0;0;
63915;PMS5003;50094;51.356;-0.196;2022-07-15T11:32:13;0;0;
63915;PMS5003;50094;51.356;-0.196;2022-07-15T11:34:43;0;0;
63915;PMS5003;50094;51.356;-0.196;2022-07-15T11:37:12;0;0;
63915;PMS5003;50094;51.356;-0.196;2022-07-15T11:39:40;0;0;
63915;PMS5003;50094;51.356;-0.196;2022-07-15T11:42:08;0;0;
63915;PMS5003;50094;51.356;-0.196;2022-07-15T11:44:45;0;0;
63915;PMS5003;50094;51.356;-0.196;2022-07-15T11:47:13;0;0;
63915;PMS5003;50094;51.356;-0.196;2022-07-15T11:49:42;0;0;
63915;PMS5003;50094;51.356;-0.196;2022-07-15T11:52:11;0;0;
63915;PMS5003;50094;51.356;-0.196;2022-07-15T11:54:47;0;0;
63915;PMS5003;50094;51.356;-0.196;2022-07-15T11:57:15;0;0;
63915;PMS5003;50094;51.356;-0.196;2022-07-15T11:59:50;0;0;
63915;PMS5003;50094;51.356;-0.196;2022-07-15T12:02:19;0;0;
63915;PMS5003;50094;51.356;-0.196;2022-07-15T12:04:50;0;0;
63915;PMS5003;50094;51.356;-0.196;2022-07-15T12:07:18;0;0;
63915;PMS5003;50094;51.356;-0.196;2022-07-15T12:09:46;0;0;
63915;PMS5003;50094;51.356;-0.196;2022-07-15T12:12:15;0;0;
63915;PMS5003;50094;51.356;-0.196;2022-07-15T12:14:45;0;0;
63915;PMS5003;50094;51.356;-0.196;2022-07-15T12:17:14;0;0;
63915;PMS5003;50094;51.356;-0.196;2022-07-15T12:19:46;0;0;
63915;PMS5003;50094;51.356;-0.196;2022-07-15T12:22:16;0;0;
63915;PMS5003;50094;51.356;-0.196;2022-07-15T12:24:44;0;0;
63915;PMS5003;50094;51.356;-0.196;2022-07-15T12:27:13;0;0;
63915;PMS5003;50094;51.356;-0.196;2022-07-15T12:29:41;1;0;
63915;PMS5003;50094;51.356;-0.196;2022-07-15T12:32:10;0;0;
63915;PMS5003;50094;51.356;-0.196;2022-07-15T12:34:47;0;0;
63915;PMS5003;50094;51.356;-0.196;2022-07-15T12:37:17;0;0;
63915;PMS5003;50094;51.356;-0.196;2022-07-15T12:39:54;0;0;
63915;PMS5003;50094;51.356;-0.196;2022-07-15T12:42:22;0;0;
63915;PMS5003;50094;51.356;-0.196;2022-07-15T12:45:07;0;0;
63915;PMS5003;50094;51.356;-0.196;2022-07-15T12:47:36;0;0;
63915;PMS5003;50094;51.356;-0.196;2022-07-15T12:50:22;0;0;
63915;PMS5003;50094;51.356;-0.196;2022-07-15T12:52:49;0;0;
63915;PMS5003;50094;51.356;-0.196;2022-07-15T12:55:20;0;0;
63915;PMS5003;50094;51.356;-0.196;2022-07-15T12:58:01;0;0;
63915;PMS5003;50094;51.356;-0.196;2022-07-15T13:00:30;0;0;
63915;PMS5003;50094;51.356;-0.196;2022-07-15T13:02:59;0;0;
63915;PMS5003;50094;51.356;-0.196;2022-07-15T13:05:30;0;0;
63915;PMS5003;50094;51.356;-0.196;2022-07-15T13:07:59;0;0;
63915;PMS5003;50094;51.356;-0.196;2022-07-15T13:10:27;0;0;
63915;PMS5003;50094;51.356;-0.196;2022-07-15T13:12:55;0;0;
63915;PMS5003;50094;51.356;-0.196;2022-07-15T13:15:23;1;0;
63915;PMS5003;50094;51.356;-0.196;2022-07-15T13:17:51;0;0;
63915;PMS5003;50094;51.356;-0.196;2022-07-15T13:20:19;0;0;
63915;PMS5003;50094;51.356;-0.196;2022-07-15T13:22:47;0;0;
63915;PMS5003;50094;51.356;-0.196;2022-07-15T13:25:15;0;0;
63915;PMS5003;50094;51.356;-0.196;2022-07-15T13:27:43;0;0;
63915;PMS5003;50094;51.356;-0.196;2022-07-15T13:30:12;0;0;
63915;PMS5003;50094;51.356;-0.196;2022-07-15T13:32:40;0;0;
63915;PMS5003;50094;51.356;-0.196;2022-07-15T13:35:08;0;0;
63915;PMS5003;50094;51.356;-0.196;2022-07-15T13:37:37;0;0;
63915;PMS5003;50094;51.356;-0.196;2022-07-15T13:40:07;0;0;
63915;PMS5003;50094;51.356;-0.196;2022-07-15T13:42:36;0;0;
63915;PMS5003;50094;51.356;-0.196;2022-07-15T13:45:05;0;0;
63915;PMS5003;50094;51.356;-0.196;2022-07-15T13:47:34;0;0;
63915;PMS5003;50094;51.356;-0.196;2022-07-15T13:50:01;0;0;
63915;PMS5003;50094;51.356;-0.196;2022-07-15T13:52:30;0;0;
63915;PMS5003;50094;51.356;-0.196;2022-07-15T13:54:58;0;0;
63915;PMS5003;50094;51.356;-0.196;2022-07-15T13:57:26;0;0;
63915;PMS5003;50094;51.356;-0.196;2022-07-15T13:59:53;0;0;
63915;PMS5003;50094;51.356;-0.196;2022-07-15T14:02:21;0;0;
63915;PMS5003;50094;51.356;-0.196;2022-07-15T14:04:49;0;0;
63915;PMS5003;50094;51.356;-0.196;2022-07-15T14:07:16;0;0;
63915;PMS5003;50094;51.356;-0.196;2022-07-15T14:09:44;0;0;
63915;PMS5003;50094;51.356;-0.196;2022-07-15T14:12:11;0;0;
63915;PMS5003;50094;51.356;-0.196;2022-07-15T14:14:39;1;0;
63915;PMS5003;50094;51.356;-0.196;2022-07-15T14:17:07;0;0;
63915;PMS5003;50094;51.356;-0.196;2022-07-15T14:19:34;0;0;
63915;PMS5003;50094;51.356;-0.196;2022-07-15T14:22:02;0;0;
63915;PMS5003;50094;51.356;-0.196;2022-07-15T14:24:30;0;0;
63915;PMS5003;50094;51.356;-0.196;2022-07-15T14:26:57;0;0;
63915;PMS5003;50094;51.356;-0.196;2022-07-15T14:29:25;0;0;
63915;PMS5003;50094;51.356;-0.196;2022-07-15T14:31:52;0;0;
63915;PMS5003;50094;51.356;-0.196;2022-07-15T14:34:20;0;0;
63915;PMS5003;50094;51.356;-0.196;2022-07-15T14:36:48;2;2;
63915;PMS5003;50094;51.356;-0.196;2022-07-15T14:39:15;0;0;
63915;PMS5003;50094;51.356;-0.196;2022-07-15T14:41:43;0;0;
63915;PMS5003;50094;51.356;-0.196;2022-07-15T14:44:10;0;0;
63915;PMS5003;50094;51.356;-0.196;2022-07-15T14:46:38;0;0;
63915;PMS5003;50094;51.356;-0.196;2022-07-15T14:49:06;1;0;
63915;PMS5003;50094;51.356;-0.196;2022-07-15T14:51:33;0;0;
63915;PMS5003;50094;51.356;-0.196;2022-07-15T14:54:01;0;0;
63915;PMS5003;50094;51.356;-0.196;2022-07-15T14:56:29;0;0;
63915;PMS5003;50094;51.356;-0.196;2022-07-15T14:58:56;0;0;
63915;PMS5003;50094;51.356;-0.196;2022-07-15T15:01:24;1;1;
63915;PMS5003;50094;51.356;-0.196;2022-07-15T15:03:51;0;0;
63915;PMS5003;50094;51.356;-0.196;2022-07-15T15:06:19;0;0;
63915;PMS5003;50094;51.356;-0.196;2022-07-15T15:08:46;0;0;
63915;PMS5003;50094;51.356;-0.196;2022-07-15T15:11:14;0;0;
63915;PMS5003;50094;51.356;-0.196;2022-07-15T15:13:42;0;0;
63915;PMS5003;50094;51.356;-0.196;2022-07-15T15:16:09;4;4;
63915;PMS5003;50094;51.356;-0.196;2022-07-15T15:18:37;0;0;
63915;PMS5003;50094;51.356;-0.196;2022-07-15T15:21:06;0;0;
63915;PMS5003;50094;51.356;-0.196;2022-07-15T15:23:33;0;0;
63915;PMS5003;50094;51.356;-0.196;2022-07-15T15:26:01;0;0;
63915;PMS5003;50094;51.356;-0.196;2022-07-15T15:28:28;0;0;
63915;PMS5003;50094;51.356;-0.196;2022-07-15T15:30:56;0;0;
63915;PMS5003;50094;51.356;-0.196;2022-07-15T15:33:23;0;0;
63915;PMS5003;50094;51.356;-0.196;2022-07-15T15:35:51;0;0;
63915;PMS5003;50094;51.356;-0.196;2022-07-15T15:38:19;0;0;
63915;PMS5003;50094;51.356;-0.196;2022-07-15T15:40:46;1;0;
63915;PMS5003;50094;51.356;-0.196;2022-07-15T15:43:14;0;0;
63915;PMS5003;50094;51.356;-0.196;2022-07-15T15:45:42;0;0;
63915;PMS5003;50094;51.356;-0.196;2022-07-15T15:48:10;0;0;
63915;PMS5003;50094;51.356;-0.196;2022-07-15T15:50:37;0;0;
63915;PMS5003;50094;51.356;-0.196;2022-07-15T15:53:05;0;0;
63915;PMS5003;50094;51.356;-0.196;2022-07-15T15:55:32;0;0;
63915;PMS5003;50094;51.356;-0.196;2022-07-15T15:58:00;0;0;
63915;PMS5003;50094;51.356;-0.196;2022-07-15T16:00:28;0;0;
63915;PMS5003;50094;51.356;-0.196;2022-07-15T16:02:55;0;0;
63915;PMS5003;50094;51.356;-0.196;2022-07-15T16:05:23;0;0;
63915;PMS5003;50094;51.356;-0.196;2022-07-15T16:07:51;0;0;
63915;PMS5003;50094;51.356;-0.196;2022-07-15T16:10:19;0;0;
63915;PMS5003;50094;51.356;-0.196;2022-07-15T16:12:47;0;0;
63915;PMS5003;50094;51.356;-0.196;2022-07-15T16:15:14;0;0;
63915;PMS5003;50094;51.356;-0.196;2022-07-15T16:17:42;0;0;
63915;PMS5003;50094;51.356;-0.196;2022-07-15T16:20:10;0;0;
63915;PMS5003;50094;51.356;-0.196;2022-07-15T16:22:38;0;0;
63915;PMS5003;50094;51.356;-0.196;2022-07-15T16:25:06;0;0;
63915;PMS5003;50094;51.356;-0.196;2022-07-15T16:27:34;0;0;
63915;PMS5003;50094;51.356;-0.196;2022-07-15T16:30:02;0;0;
63915;PMS5003;50094;51.356;-0.196;2022-07-15T16:32:30;0;0;
63915;PMS5003;50094;51.356;-0.196;2022-07-15T16:34:58;0;0;
63915;PMS5003;50094;51.356;-0.196;2022-07-15T16:37:26;0;0;
63915;PMS5003;50094;51.356;-0.196;2022-07-15T16:39:53;0;0;
63915;PMS5003;50094;51.356;-0.196;2022-07-15T16:42:21;0;0;
63915;PMS5003;50094;51.356;-0.196;2022-07-15T16:44:48;0;0;